Time;durP1;ratioP1;P1;durP2;ratioP2;P2;SDS_P1;SDS_P2;PMS_P1;PMS_P2;Temp;Humidity;BMP_temperature;BMP_pressure;BME280_temperature;BME280_humidity;BME280_pressure;Samples;Min_cycle;Max_cycle;Signal;HPM_P1;HPM_P2
2022/01/02 00:00:17;;;;;;;12.75;9.73;;;;;;;6.96;88.68;101077.88;4969063;28;20416;-79
2022/01/02 00:02:49;;;;;;;13.32;10.13;;;;;;;6.94;88.46;101082.66;4962405;28;20396;-79
2022/01/02 00:05:21;;;;;;;11.53;8.73;;;;;;;6.94;88.48;101087.22;4972709;28;20401;-79
2022/01/02 00:07:56;;;;;;;12.48;8.90;;;;;;;6.92;88.57;101083.88;4967662;28;20422;-79
2022/01/02 00:10:23;;;;;;;13.13;9.68;;;;;;;6.88;88.49;101078.09;4971973;28;20409;-79
2022/01/02 00:12:52;;;;;;;12.57;10.20;;;;;;;6.85;88.84;101083.88;4972192;28;20840;-79
2022/01/02 00:15:22;;;;;;;18.67;14.35;;;;;;;6.82;88.14;101070.81;4973120;28;20404;-79
2022/01/02 00:17:53;;;;;;;14.02;11.95;;;;;;;6.78;88.51;101074.97;4973028;28;20443;-79
2022/01/02 00:20:31;;;;;;;16.42;11.85;;;;;;;6.76;88.31;101060.84;4975790;28;20399;-80
2022/01/02 00:23:00;;;;;;;15.18;10.52;;;;;;;6.77;88.80;101062.53;4968213;28;20409;-79
2022/01/02 00:25:29;;;;;;;13.65;10.80;;;;;;;6.75;89.27;101060.03;4969372;28;20454;-79
2022/01/02 00:27:55;;;;;;;13.57;10.52;;;;;;;6.75;89.05;101049.25;4960817;28;20415;-79
2022/01/02 00:30:21;;;;;;;14.33;10.67;;;;;;;6.77;89.10;101049.88;4976198;28;20804;-79
2022/01/02 00:32:47;;;;;;;17.33;11.23;;;;;;;6.77;89.39;101046.38;4973317;28;20450;-79
2022/01/02 00:35:12;;;;;;;22.33;14.27;;;;;;;6.76;89.25;101033.91;4976357;28;20830;-79
2022/01/02 00:37:39;;;;;;;27.08;17.15;;;;;;;6.76;90.37;101032.06;4975417;28;20484;-79
2022/01/02 00:40:05;;;;;;;27.55;17.58;;;;;;;6.79;90.59;101018.19;4972084;28;20416;-79
2022/01/02 00:42:34;;;;;;;27.17;18.23;;;;;;;6.84;90.32;101012.19;4963814;28;20400;-80
2022/01/02 00:45:02;;;;;;;29.85;19.58;;;;;;;6.81;90.47;101019.84;4975994;28;20743;-79
2022/01/02 00:47:36;;;;;;;23.87;18.10;;;;;;;6.77;91.11;101011.34;4975138;28;20424;-79
2022/01/02 00:50:20;;;;;;;28.30;19.13;;;;;;;6.75;91.71;101005.34;4961742;28;20399;-79
2022/01/02 00:52:47;;;;;;;27.38;19.38;;;;;;;6.76;91.93;101005.13;4967593;28;20403;-79
2022/01/02 00:55:19;;;;;;;26.80;18.80;;;;;;;6.79;91.64;101012.78;4975333;28;20514;-80
2022/01/02 00:57:54;;;;;;;26.97;19.77;;;;;;;6.78;91.40;101005.72;4975060;28;20411;-79
2022/01/02 01:00:20;;;;;;;27.98;18.40;;;;;;;6.77;91.63;101001.41;4970634;28;20904;-79
2022/01/02 01:02:49;;;;;;;25.10;17.87;;;;;;;6.76;91.52;101004.28;4963578;28;20425;-79
2022/01/02 01:05:18;;;;;;;26.90;18.25;;;;;;;6.74;91.36;100999.13;4972898;28;20409;-79
2022/01/02 01:07:47;;;;;;;25.85;19.15;;;;;;;6.72;91.58;100995.78;4975860;28;20436;-79
2022/01/02 01:10:12;;;;;;;23.13;17.25;;;;;;;6.73;91.05;101000.16;4973775;28;20483;-79
2022/01/02 01:12:38;;;;;;;24.17;18.47;;;;;;;6.72;91.38;100997.66;4974591;28;20428;-79
2022/01/02 01:15:06;;;;;;;27.88;19.15;;;;;;;6.66;91.16;100993.94;4973150;28;20428;-79
2022/01/02 01:17:31;;;;;;;61.10;21.85;;;;;;;6.64;91.58;100990.63;4975342;28;20871;-79
2022/01/02 01:19:58;;;;;;;64.10;20.97;;;;;;;6.64;91.85;100987.09;4966956;28;20432;-79
2022/01/02 01:22:23;;;;;;;79.78;23.60;;;;;;;6.68;92.46;100982.97;4968228;28;20408;-79
2022/01/02 01:24:48;;;;;;;87.37;22.67;;;;;;;6.68;92.57;100988.34;4975385;28;20868;-79
2022/01/02 01:27:14;;;;;;;159.97;24.83;;;;;;;6.70;92.64;100986.28;4972941;28;20482;-79
2022/01/02 01:29:39;;;;;;;125.88;23.63;;;;;;;6.71;91.84;100986.06;4957668;28;20424;-79
2022/01/02 01:32:06;;;;;;;159.67;23.80;;;;;;;6.65;92.05;100994.16;4975210;28;20393;-80
2022/01/02 01:34:32;;;;;;;102.50;20.80;;;;;;;6.55;92.43;100999.13;4974958;28;20404;-79
2022/01/02 01:36:58;;;;;;;106.95;20.27;;;;;;;6.52;92.52;101005.72;4958903;28;20794;-79
2022/01/02 01:39:23;;;;;;;59.63;19.57;;;;;;;6.53;92.19;100995.78;4974071;28;20478;-79
2022/01/02 01:41:51;;;;;;;90.47;20.80;;;;;;;6.41;93.04;101005.50;4975010;28;20759;-80
2022/01/02 01:46:42;;;;;;;75.10;18.83;;;;;;;6.33;93.03;100990.38;4971786;28;20425;-80
2022/01/02 01:49:21;;;;;;;61.40;18.50;;;;;;;6.30;92.85;100998.00;4974330;28;20439;-79
2022/01/02 01:51:47;;;;;;;66.72;17.67;;;;;;;6.40;92.75;100985.81;4957879;28;20451;-79
2022/01/02 01:54:14;;;;;;;49.97;17.10;;;;;;;6.44;92.70;100983.56;4974529;28;20431;-80
2022/01/02 01:56:39;;;;;;;63.45;17.65;;;;;;;6.37;92.33;100996.16;4974407;28;20909;-79
2022/01/02 01:59:06;;;;;;;59.10;18.27;;;;;;;6.37;92.69;100980.03;4971127;28;20487;-79
2022/01/02 02:01:32;;;;;;;58.00;17.02;;;;;;;6.45;92.14;100980.66;4957503;28;20495;-80
2022/01/02 02:03:58;;;;;;;63.20;17.60;;;;;;;6.52;92.35;100988.75;4974324;28;20754;-79
2022/01/02 02:06:24;;;;;;;62.08;17.17;;;;;;;6.54;91.92;101000.13;4974358;28;20423;-79
2022/01/02 02:08:52;;;;;;;30.88;14.45;;;;;;;6.52;91.71;100991.44;4968378;28;20492;-80
2022/01/02 02:11:18;;;;;;;51.53;16.37;;;;;;;6.47;90.90;100993.91;4974440;28;20489;-79
2022/01/02 02:13:44;;;;;;;46.33;15.47;;;;;;;6.38;91.21;100995.16;4972404;28;20488;-80
2022/01/02 02:16:10;;;;;;;31.50;15.02;;;;;;;6.33;91.73;100994.91;4971403;28;20507;-79
2022/01/02 02:18:35;;;;;;;46.07;15.30;;;;;;;6.25;91.41;100996.78;4974560;28;20407;-79
2022/01/02 02:21:01;;;;;;;53.17;17.47;;;;;;;6.25;91.89;100977.94;4974016;28;20842;-79
2022/01/02 02:23:26;;;;;;;33.70;16.50;;;;;;;6.29;90.85;100972.16;4974336;28;20400;-79
2022/01/02 02:25:51;;;;;;;20.02;14.52;;;;;;;6.27;90.60;100980.41;4974131;28;20416;-79
2022/01/02 02:28:17;;;;;;;22.73;15.53;;;;;;;6.25;90.37;100977.13;4973359;28;20420;-79
2022/01/02 02:30:47;;;;;;;16.10;13.67;;;;;;;6.22;90.09;100989.09;4968176;28;20868;-79
2022/01/02 02:33:15;;;;;;;26.35;12.50;;;;;;;6.16;90.12;100976.44;4973141;28;20411;-80
2022/01/02 02:35:42;;;;;;;27.42;11.40;;;;;;;6.10;90.12;100979.97;4974143;28;20455;-80
2022/01/02 02:38:09;;;;;;;69.87;13.03;;;;;;;6.04;89.65;100969.19;4956103;28;20428;-80
2022/01/02 02:40:36;;;;;;;99.15;13.75;;;;;;;5.97;89.36;100968.34;4973115;28;20399;-79
2022/01/02 02:43:14;;;;;;;94.83;13.67;;;;;;;5.90;88.99;100951.34;4955745;28;20420;-80
2022/01/02 02:51:12;;;;;;;68.05;14.20;;;;;;;5.68;87.39;100939.88;4968836;28;20459;-80
2022/01/02 02:53:45;;;;;;;38.85;10.77;;;;;;;5.69;87.85;100938.84;4973557;28;20407;-79
2022/01/02 02:56:19;;;;;;;65.95;12.40;;;;;;;5.77;88.83;100944.03;4973810;28;20479;-80
2022/01/02 02:58:45;;;;;;;75.25;11.73;;;;;;;5.79;88.58;100931.22;4971573;28;20455;-79
2022/01/02 03:01:13;;;;;;;105.93;14.43;;;;;;;5.84;88.64;100931.44;4973469;28;20418;-79
2022/01/02 03:03:39;;;;;;;97.78;14.80;;;;;;;5.87;88.83;100919.47;4970680;28;20443;-79
2022/01/02 03:06:04;;;;;;;34.17;11.02;;;;;;;5.87;88.65;100922.16;4973675;28;20428;-79
2022/01/02 03:08:31;;;;;;;49.28;11.20;;;;;;;5.80;88.97;100923.97;4973476;28;20880;-79
2022/01/02 03:10:56;;;;;;;81.10;12.35;;;;;;;5.72;89.30;100931.22;4958724;28;20401;-79
2022/01/02 03:13:21;;;;;;;59.13;12.47;;;;;;;5.70;89.93;100919.81;4951096;28;20467;-79
2022/01/02 03:15:47;;;;;;;60.93;11.70;;;;;;;5.73;90.65;100907.81;4955366;28;20987;-79
2022/01/02 03:18:12;;;;;;;35.13;11.60;;;;;;;5.78;89.80;100912.59;4962266;28;20472;-79
2022/01/02 03:20:37;;;;;;;34.60;12.48;;;;;;;5.84;90.07;100915.28;4967103;28;20760;-79
2022/01/02 03:23:02;;;;;;;17.90;10.67;;;;;;;5.91;89.71;100909.97;4966968;28;20488;-80
2022/01/02 03:25:28;;;;;;;12.17;10.90;;;;;;;5.95;89.68;100906.69;4973293;28;20396;-79
2022/01/02 03:27:53;;;;;;;23.17;16.20;;;;;;;5.97;89.41;100901.91;4972370;28;20448;-79
2022/01/02 03:30:18;;;;;;;28.50;18.60;;;;;;;5.91;90.44;100894.66;4955172;28;20812;-80
2022/01/02 03:32:44;;;;;;;30.33;20.80;;;;;;;5.93;91.14;100879.13;4955594;28;20388;-79
2022/01/02 03:35:09;;;;;;;29.50;21.63;;;;;;;5.94;91.09;100883.50;4973138;28;20442;-80
2022/01/02 03:37:35;;;;;;;32.23;21.37;;;;;;;5.92;91.40;100879.34;4972593;28;20396;-79
2022/01/02 03:40:02;;;;;;;27.67;20.08;;;;;;;5.93;91.64;100865.69;4954476;28;20555;-79
2022/01/02 03:42:28;;;;;;;26.23;19.83;;;;;;;5.98;91.64;100870.47;4971603;28;20417;-79
2022/01/02 03:44:53;;;;;;;26.25;19.25;;;;;;;5.95;91.42;100869.03;4955621;28;20403;-80
2022/01/02 03:47:19;;;;;;;24.83;19.43;;;;;;;6.04;91.42;100869.63;4948737;28;20458;-80
2022/01/02 03:49:44;;;;;;;26.37;20.47;;;;;;;6.15;90.82;100869.88;4956295;28;20417;-80
2022/01/02 03:52:10;;;;;;;30.30;23.10;;;;;;;6.22;90.37;100861.81;4972907;28;20459;-80
2022/01/02 03:54:35;;;;;;;28.75;21.30;;;;;;;6.12;89.99;100856.84;4972173;28;20420;-79
2022/01/02 03:57:01;;;;;;;28.10;19.83;;;;;;;6.05;90.96;100844.41;4970842;28;20422;-80
2022/01/02 03:59:26;;;;;;;27.97;20.20;;;;;;;6.13;90.56;100853.09;4971540;28;20408;-79
2022/01/02 04:01:51;;;;;;;31.17;23.00;;;;;;;6.12;90.28;100851.44;4966630;28;20404;-80
2022/01/02 04:04:17;;;;;;;30.13;22.53;;;;;;;6.11;90.04;100848.94;4955276;28;20772;-80
2022/01/02 04:06:42;;;;;;;49.75;32.95;;;;;;;6.11;90.66;100828.25;4972632;28;20412;-80
2022/01/02 04:09:08;;;;;;;29.83;20.13;;;;;;;6.18;89.96;100828.25;4971925;28;20400;-80
2022/01/02 04:11:33;;;;;;;25.23;19.50;;;;;;;6.27;90.18;100840.47;4970395;28;20482;-80
2022/01/02 04:13:58;;;;;;;25.30;17.10;;;;;;;6.30;89.79;100836.53;4955031;28;20494;-80
2022/01/02 04:16:23;;;;;;;19.60;15.67;;;;;;;6.30;89.36;100840.03;4972595;28;20416;-79
2022/01/02 04:18:50;;;;;;;19.33;14.97;;;;;;;6.29;88.90;100837.56;4972690;28;20400;-80
2022/01/02 04:21:15;;;;;;;16.10;13.10;;;;;;;6.24;89.03;100835.50;4947889;28;20444;-80
2022/01/02 04:23:40;;;;;;;17.20;13.43;;;;;;;6.19;89.22;100832.63;4967904;28;20397;-80
2022/01/02 04:26:07;;;;;;;14.30;11.82;;;;;;;6.08;88.97;100841.28;4972308;28;20474;-80
2022/01/02 04:28:33;;;;;;;15.07;12.88;;;;;;;6.09;89.28;100840.28;4971303;28;20914;-79
2022/01/02 04:30:58;;;;;;;18.17;14.13;;;;;;;6.14;88.96;100840.47;4966171;28;20412;-80
2022/01/02 04:33:23;;;;;;;22.67;17.07;;;;;;;6.16;88.79;100833.84;4972632;28;20428;-79
2022/01/02 04:35:48;;;;;;;20.83;16.07;;;;;;;6.19;88.79;100829.94;4972145;28;20412;-80
2022/01/02 04:38:14;;;;;;;19.20;14.77;;;;;;;6.22;88.89;100826.81;4972399;28;20400;-80
2022/01/02 04:40:40;;;;;;;19.60;15.17;;;;;;;6.23;88.53;100823.91;4972422;28;20733;-80
2022/01/02 04:43:06;;;;;;;21.20;15.75;;;;;;;6.23;88.70;100818.50;4970191;28;20783;-80
2022/01/02 04:45:31;;;;;;;17.50;13.63;;;;;;;6.23;88.31;100815.81;4972423;28;20388;-80
2022/01/02 04:47:57;;;;;;;15.30;12.13;;;;;;;6.19;88.04;100811.09;4955058;28;20971;-80
2022/01/02 04:50:22;;;;;;;15.70;12.17;;;;;;;6.15;88.44;100817.91;4972423;28;20393;-80
2022/01/02 04:52:47;;;;;;;15.25;12.00;;;;;;;6.11;88.46;100811.28;4970891;28;20463;-79
2022/01/02 04:55:13;;;;;;;13.23;11.47;;;;;;;6.08;88.78;100807.16;4967957;28;20438;-80
2022/01/02 04:57:38;;;;;;;14.33;11.17;;;;;;;6.09;88.71;100803.41;4953358;28;20443;-80
2022/01/02 05:00:06;;;;;;;15.13;11.55;;;;;;;6.10;88.70;100798.84;4946749;28;20450;-80
2022/01/02 05:02:31;;;;;;;13.43;11.52;;;;;;;6.11;89.01;100795.97;4973295;28;20808;-80
2022/01/02 05:04:56;;;;;;;12.93;11.27;;;;;;;6.13;88.47;100796.56;4976012;28;20399;-80
2022/01/02 05:07:22;;;;;;;12.80;11.00;;;;;;;6.13;88.18;100791.19;4974016;28;20895;-79
2022/01/02 05:09:47;;;;;;;11.75;10.00;;;;;;;6.10;88.18;100780.84;4970021;28;20600;-79
2022/01/02 05:12:12;;;;;;;13.40;11.27;;;;;;;6.10;88.04;100780.03;4971580;28;20410;-79
2022/01/02 05:14:38;;;;;;;15.30;11.50;;;;;;;6.07;87.72;100789.34;4973608;28;20953;-79
2022/01/02 05:17:03;;;;;;;14.57;11.23;;;;;;;6.03;87.58;100790.78;4971767;28;20888;-79
2022/01/02 05:19:29;;;;;;;14.30;11.80;;;;;;;6.03;87.88;100792.63;4952878;28;20415;-79
2022/01/02 05:21:54;;;;;;;11.83;10.47;;;;;;;6.01;88.37;100786.66;4956092;28;20451;-79
2022/01/02 05:24:19;;;;;;;14.73;11.43;;;;;;;5.99;88.26;100777.97;4974496;28;20427;-79
2022/01/02 05:26:44;;;;;;;13.40;10.90;;;;;;;5.99;88.24;100789.56;4975202;28;20412;-80
2022/01/02 05:29:10;;;;;;;12.60;10.43;;;;;;;6.00;88.51;100803.81;4957892;28;20405;-80
2022/01/02 05:31:35;;;;;;;12.77;10.10;;;;;;;5.99;88.31;100791.41;4974523;28;20459;-80
2022/01/02 05:34:00;;;;;;;11.70;10.00;;;;;;;5.97;88.25;100794.31;4974544;28;20444;-79
2022/01/02 05:36:25;;;;;;;11.03;9.93;;;;;;;5.94;88.28;100794.72;4957323;28;20412;-80
2022/01/02 05:38:51;;;;;;;11.93;9.53;;;;;;;5.91;88.00;100805.91;4974812;28;20416;-80
2022/01/02 05:41:16;;;;;;;13.00;9.95;;;;;;;5.89;88.16;100805.28;4974546;28;20408;-80
2022/01/02 05:43:41;;;;;;;13.33;10.43;;;;;;;5.87;88.45;100801.94;4974424;28;20498;-79
2022/01/02 05:46:07;;;;;;;11.13;9.73;;;;;;;5.86;88.70;100794.91;4974925;28;20460;-80
2022/01/02 05:48:34;;;;;;;10.50;9.50;;;;;;;5.89;88.51;100774.88;4974667;28;20396;-80
2022/01/02 05:51:00;;;;;;;12.43;9.98;;;;;;;5.88;88.69;100768.66;4974288;28;20442;-79
2022/01/02 05:53:26;;;;;;;13.50;10.60;;;;;;;5.90;87.79;100771.13;4974485;28;20460;-80
2022/01/02 05:55:51;;;;;;;15.57;10.63;;;;;;;5.88;87.57;100770.50;4974861;28;20970;-80
2022/01/02 05:58:17;;;;;;;11.67;9.77;;;;;;;5.88;87.17;100787.47;4974784;28;20396;-80
2022/01/02 06:00:42;;;;;;;11.77;9.67;;;;;;;5.85;87.51;100795.09;4974683;28;20559;-80
2022/01/02 06:03:07;;;;;;;11.13;9.80;;;;;;;5.83;86.97;100789.09;4975068;28;20402;-80
2022/01/02 06:05:32;;;;;;;11.80;9.47;;;;;;;5.81;87.46;100781.22;4974480;28;20455;-80
2022/01/02 06:07:58;;;;;;;10.77;9.67;;;;;;;5.78;87.09;100772.75;4974419;28;20502;-80
2022/01/02 06:10:23;;;;;;;15.27;10.43;;;;;;;5.67;87.85;100780.38;4974116;28;20498;-80
2022/01/02 06:12:48;;;;;;;11.17;9.63;;;;;;;5.69;87.76;100777.50;4973068;28;20412;-80
2022/01/02 06:15:13;;;;;;;10.60;9.20;;;;;;;5.62;87.83;100774.81;4974506;28;20407;-80
2022/01/02 06:17:39;;;;;;;11.43;9.70;;;;;;;5.64;88.02;100772.72;4973748;28;20422;-80
2022/01/02 06:20:05;;;;;;;11.85;9.77;;;;;;;5.61;88.10;100765.09;4955576;28;20420;-80
2022/01/02 06:22:30;;;;;;;11.98;9.25;;;;;;;5.61;88.00;100758.88;4958203;28;20474;-80
2022/01/02 06:24:55;;;;;;;11.33;9.60;;;;;;;5.64;88.14;100770.03;4973946;28;20456;-80
2022/01/02 06:27:20;;;;;;;12.33;9.20;;;;;;;5.70;88.11;100773.75;4974179;28;20742;-80
2022/01/02 06:29:46;;;;;;;9.18;8.27;;;;;;;5.75;88.20;100768.63;4967105;28;20416;-80
2022/01/02 06:32:11;;;;;;;9.90;8.20;;;;;;;5.78;88.39;100772.75;4968741;28;20478;-80
2022/01/02 06:34:36;;;;;;;10.83;9.53;;;;;;;5.78;88.02;100767.38;4973274;28;20760;-80
2022/01/02 06:37:02;;;;;;;10.13;8.97;;;;;;;5.82;88.73;100765.94;4974158;28;20408;-80
2022/01/02 06:39:27;;;;;;;13.50;8.90;;;;;;;5.89;88.21;100750.66;4973746;28;20408;-80
2022/01/02 06:41:52;;;;;;;12.03;8.53;;;;;;;5.94;87.80;100740.09;4971232;28;20872;-80
2022/01/02 06:44:18;;;;;;;12.07;9.27;;;;;;;5.93;88.04;100731.19;4956742;28;20404;-80
2022/01/02 06:46:43;;;;;;;11.10;9.90;;;;;;;5.93;88.15;100736.56;4973541;28;20904;-80
2022/01/02 06:49:08;;;;;;;16.43;10.13;;;;;;;5.93;87.74;100733.88;4972491;28;20912;-80
2022/01/02 06:51:34;;;;;;;13.93;10.00;;;;;;;5.90;88.07;100736.97;4971700;28;20922;-80
2022/01/02 06:53:59;;;;;;;11.93;10.10;;;;;;;5.87;88.32;100732.03;4960075;28;20443;-80
2022/01/02 06:56:24;;;;;;;12.03;10.37;;;;;;;5.87;88.64;100742.78;4964714;28;20478;-80
2022/01/02 06:58:49;;;;;;;13.60;10.87;;;;;;;5.90;88.50;100752.28;4973420;28;20407;-80
2022/01/02 07:01:15;;;;;;;18.43;14.60;;;;;;;5.86;88.49;100749.19;4972708;28;20415;-80
2022/01/02 07:03:40;;;;;;;16.93;14.00;;;;;;;5.85;88.69;100760.97;4955026;28;20415;-79
2022/01/02 07:06:05;;;;;;;14.30;12.00;;;;;;;5.83;88.92;100757.63;4971608;28;20427;-80
2022/01/02 07:08:30;;;;;;;13.73;10.80;;;;;;;5.83;88.94;100748.78;4973685;28;20452;-80
2022/01/02 07:10:56;;;;;;;12.70;10.40;;;;;;;5.86;88.85;100748.38;4971768;28;20392;-80
2022/01/02 07:13:22;;;;;;;10.70;9.33;;;;;;;5.80;89.18;100751.84;4973104;28;20435;-79
2022/01/02 07:15:47;;;;;;;14.65;11.00;;;;;;;5.68;89.48;100749.78;4960295;28;20502;-80
2022/01/02 07:18:13;;;;;;;13.88;10.95;;;;;;;5.72;89.40;100744.81;4973335;28;20399;-80
2022/01/02 07:20:38;;;;;;;14.30;10.93;;;;;;;5.75;89.67;100744.41;4967247;28;20427;-79
2022/01/02 07:23:03;;;;;;;16.63;12.73;;;;;;;5.82;89.13;100752.47;4978584;28;20769;-80
2022/01/02 07:25:28;;;;;;;14.97;12.60;;;;;;;5.88;89.17;100757.06;4961761;28;20432;-79
2022/01/02 07:27:54;;;;;;;13.27;11.87;;;;;;;5.92;88.86;100758.31;4972956;28;20416;-79
2022/01/02 07:30:19;;;;;;;15.13;11.13;;;;;;;5.95;89.02;100745.28;4952049;28;20400;-80
2022/01/02 07:32:44;;;;;;;15.98;11.65;;;;;;;5.97;88.43;100750.44;4966421;28;20413;-80
2022/01/02 07:35:10;;;;;;;14.87;11.03;;;;;;;5.98;88.16;100744.84;4970124;28;20442;-80
2022/01/02 07:37:36;;;;;;;14.57;10.87;;;;;;;5.96;87.96;100752.28;4976308;28;20431;-80
2022/01/02 07:40:04;;;;;;;12.77;11.20;;;;;;;5.90;88.55;100750.44;4963977;28;20420;-80
2022/01/02 07:42:29;;;;;;;20.73;16.50;;;;;;;5.87;89.01;100758.09;4979258;28;20411;-80
2022/01/02 07:44:55;;;;;;;19.02;14.73;;;;;;;5.92;89.39;100748.38;4973010;28;20396;-80
2022/01/02 07:47:20;;;;;;;18.33;14.07;;;;;;;5.96;88.54;100738.84;4972795;28;20416;-80
2022/01/02 07:49:45;;;;;;;16.70;12.27;;;;;;;6.00;88.11;100737.41;4972933;28;20749;-80
2022/01/02 07:52:10;;;;;;;14.70;11.90;;;;;;;6.07;87.97;100748.16;4972250;28;20408;-80
2022/01/02 07:54:36;;;;;;;17.10;12.23;;;;;;;6.05;87.48;100743.00;4971791;28;20426;-80
2022/01/02 07:57:02;;;;;;;15.85;11.82;;;;;;;6.04;87.80;100740.50;4966180;28;20465;-80
2022/01/02 07:59:27;;;;;;;18.90;12.50;;;;;;;6.09;88.03;100736.13;4967977;28;20408;-80
2022/01/02 08:01:52;;;;;;;17.87;13.60;;;;;;;6.13;88.39;100742.75;4956714;28;20413;-81
2022/01/02 08:04:19;;;;;;;25.03;16.90;;;;;;;6.21;88.50;100747.09;4972158;28;20483;-79
2022/01/02 08:06:44;;;;;;;25.30;17.10;;;;;;;6.24;88.13;100750.22;4970672;28;20416;-79
2022/01/02 08:09:10;;;;;;;24.25;16.75;;;;;;;6.28;88.28;100753.31;4966659;28;20737;-80
2022/01/02 08:11:35;;;;;;;17.98;12.07;;;;;;;6.34;88.16;100746.25;4972571;28;20416;-81
2022/01/02 08:14:00;;;;;;;17.67;12.17;;;;;;;6.37;88.09;100730.50;4971125;28;20427;-80
2022/01/02 08:16:26;;;;;;;18.53;13.43;;;;;;;6.47;88.05;100738.97;4967598;28;21065;-80
2022/01/02 08:18:51;;;;;;;17.30;13.02;;;;;;;6.53;87.22;100745.38;4972515;28;20400;-81
2022/01/02 08:21:17;;;;;;;14.90;12.00;;;;;;;6.60;87.49;100738.09;4971909;28;20451;-80
2022/01/02 08:23:42;;;;;;;14.10;11.60;;;;;;;6.60;87.21;100746.19;4972379;28;20419;-80
2022/01/02 08:26:07;;;;;;;14.07;11.50;;;;;;;6.57;86.52;100752.81;4971747;28;20420;-81
2022/01/02 08:28:32;;;;;;;15.00;11.10;;;;;;;6.56;86.92;100742.25;4967122;28;20439;-78
2022/01/02 08:30:58;;;;;;;16.63;11.27;;;;;;;6.60;87.01;100749.72;4966264;28;20454;-79
2022/01/02 08:33:23;;;;;;;13.57;10.97;;;;;;;6.66;87.14;100743.47;4972062;28;20408;-79
2022/01/02 08:35:48;;;;;;;13.07;10.73;;;;;;;6.73;86.40;100740.75;4971921;28;20412;-80
2022/01/02 08:38:15;;;;;;;14.67;11.50;;;;;;;6.81;86.07;100726.22;4974861;28;20497;-80
2022/01/02 08:40:40;;;;;;;14.70;11.18;;;;;;;6.81;86.33;100720.84;4974811;28;20408;-80
2022/01/02 08:43:06;;;;;;;13.97;11.63;;;;;;;6.93;86.02;100714.56;4975725;28;20756;-79
2022/01/02 08:45:32;;;;;;;16.55;12.73;;;;;;;7.14;85.56;100730.41;4973782;28;20452;-79
2022/01/02 08:47:58;;;;;;;19.30;12.98;;;;;;;7.36;85.12;100740.84;4975922;28;20475;-79
2022/01/02 08:50:24;;;;;;;17.50;13.35;;;;;;;7.44;84.98;100740.59;4975999;28;20400;-79
2022/01/02 08:52:49;;;;;;;17.57;13.23;;;;;;;7.55;83.83;100731.81;4975576;28;20764;-79
2022/01/02 08:55:15;;;;;;;16.90;13.77;;;;;;;7.63;83.93;100737.78;4974576;28;20416;-80
2022/01/02 08:57:41;;;;;;;19.73;13.77;;;;;;;7.67;84.00;100749.75;4964023;28;20412;-79
2022/01/02 09:00:07;;;;;;;19.20;13.87;;;;;;;7.64;83.90;100758.28;4972494;28;20423;-78
2022/01/02 09:02:32;;;;;;;14.97;12.73;;;;;;;7.78;84.03;100750.94;4972531;28;21226;-79
2022/01/02 09:04:58;;;;;;;18.07;15.20;;;;;;;7.80;83.94;100748.84;4968934;28;20506;-79
2022/01/02 09:07:23;;;;;;;16.27;13.13;;;;;;;7.74;83.97;100753.22;4973530;28;20448;-79
2022/01/02 09:09:48;;;;;;;18.43;13.97;;;;;;;7.83;84.34;100743.84;4981852;28;20440;-79
2022/01/02 09:12:14;;;;;;;16.00;13.30;;;;;;;8.53;82.58;100736.31;4961835;28;20408;-79
2022/01/02 09:14:41;;;;;;;13.85;11.45;;;;;;;8.99;79.51;100733.06;4962825;28;20412;-79
2022/01/02 09:17:06;;;;;;;16.13;12.43;;;;;;;8.58;79.97;100738.38;4967685;28;20420;-79
2022/01/02 09:19:31;;;;;;;14.50;11.57;;;;;;;8.55;81.21;100749.63;4971068;28;20412;-79
2022/01/02 09:21:57;;;;;;;14.57;12.60;;;;;;;8.65;80.18;100745.34;4975057;28;20396;-79
2022/01/02 09:24:22;;;;;;;15.18;12.43;;;;;;;8.75;80.12;100755.63;4975505;28;20400;-79
2022/01/02 09:26:48;;;;;;;14.43;12.10;;;;;;;8.75;79.88;100761.03;4957965;28;20471;-79
2022/01/02 09:29:13;;;;;;;16.77;13.17;;;;;;;8.58;80.18;100766.22;4973624;28;20403;-79
2022/01/02 09:31:39;;;;;;;15.93;12.25;;;;;;;8.48;80.19;100756.97;4970529;28;20417;-79
2022/01/02 09:34:04;;;;;;;15.63;12.02;;;;;;;8.32;81.09;100761.91;4970794;28;20420;-79
2022/01/02 09:36:30;;;;;;;14.60;11.60;;;;;;;8.17;81.20;100750.59;4973662;28;20758;-79
2022/01/02 09:38:56;;;;;;;15.93;12.53;;;;;;;8.00;81.05;100752.19;4968675;28;20416;-79
2022/01/02 09:41:22;;;;;;;15.23;13.25;;;;;;;7.86;82.50;100747.97;4974507;28;20408;-79
2022/01/02 09:43:48;;;;;;;18.30;14.13;;;;;;;7.75;82.73;100743.28;4974207;28;20418;-79
2022/01/02 09:46:32;;;;;;;15.23;13.05;;;;;;;7.61;83.48;100704.78;4974483;28;20420;-79
2022/01/02 09:48:57;;;;;;;16.67;12.95;;;;;;;7.54;83.94;100714.78;4967596;28;20491;-79
2022/01/02 09:51:25;;;;;;;18.85;14.00;;;;;;;7.56;84.37;100731.59;4957137;28;20443;-81
2022/01/02 09:53:51;;;;;;;23.30;14.65;;;;;;;7.55;84.25;100748.81;4973462;28;20412;-79
2022/01/02 09:56:17;;;;;;;18.67;14.30;;;;;;;7.51;84.80;100749.50;4974977;28;20404;-79
2022/01/02 09:58:44;;;;;;;16.05;12.73;;;;;;;7.48;84.72;100731.84;4984882;28;20418;-79
2022/01/02 10:01:20;;;;;;;19.60;14.43;;;;;;;7.53;84.58;100725.81;4974809;28;20509;-78
2022/01/02 10:03:50;;;;;;;16.38;13.90;;;;;;;7.60;84.32;100716.63;4968835;28;20399;-79
2022/01/02 10:06:16;;;;;;;14.45;12.90;;;;;;;7.61;83.85;100712.03;4956232;28;20448;-79
2022/01/02 10:08:41;;;;;;;17.20;13.45;;;;;;;7.64;83.77;100711.63;4974820;28;20400;-78
2022/01/02 10:11:42;;;;;;;15.87;12.53;;;;;;;7.65;84.05;100715.97;4974688;28;20749;-79
2022/01/02 10:14:02;;;;;;;19.52;14.65;;;;;;;7.56;84.84;100699.22;4969368;28;20416;-79
2022/01/02 10:16:42;;;;;;;20.13;14.97;;;;;;;7.62;85.12;100668.69;4974721;28;20449;-79
2022/01/02 10:19:29;;;;;;;16.83;12.98;;;;;;;7.72;83.62;100660.09;4956970;28;20435;-79
2022/01/02 10:22:00;;;;;;;17.33;12.82;;;;;;;7.79;83.87;100669.78;4974424;28;20401;-79
2022/01/02 10:24:31;;;;;;;15.73;12.55;;;;;;;7.88;83.11;100685.66;4974302;28;20400;-79
2022/01/02 10:27:09;;;;;;;16.45;13.32;;;;;;;7.83;84.21;100673.69;4974550;28;20820;-79
2022/01/02 10:29:50;;;;;;;15.02;12.13;;;;;;;8.03;83.24;100668.09;4972767;28;20500;-79
2022/01/02 10:32:27;;;;;;;16.98;13.35;;;;;;;7.82;83.72;100669.34;4971310;28;20404;-79
2022/01/02 10:35:06;;;;;;;15.55;12.80;;;;;;;7.91;82.91;100658.25;4956923;28;20419;-79
2022/01/02 10:37:32;;;;;;;15.75;12.55;;;;;;;7.87;83.69;100670.56;4956805;28;20442;-79
2022/01/02 10:39:57;;;;;;;17.93;13.07;;;;;;;7.77;84.08;100669.16;4974112;28;20457;-79
2022/01/02 10:42:23;;;;;;;15.17;12.40;;;;;;;7.67;84.34;100684.22;4954330;28;20403;-78
2022/01/02 10:44:49;;;;;;;16.55;12.07;;;;;;;7.64;85.11;100684.66;4965181;28;20420;-79
2022/01/02 10:47:17;;;;;;;14.07;12.20;;;;;;;7.73;84.89;100678.75;4974045;28;20428;-79
2022/01/02 10:49:58;;;;;;;14.43;11.75;;;;;;;8.17;84.03;100655.28;4973927;28;20396;-79
2022/01/02 10:52:36;;;;;;;13.50;11.23;;;;;;;8.82;81.40;100623.97;4973984;28;20876;-79
2022/01/02 10:55:14;;;;;;;13.93;11.70;;;;;;;9.24;79.50;100638.31;4973495;28;20496;-79
2022/01/02 10:57:42;;;;;;;14.43;11.15;;;;;;;9.39;78.86;100646.78;4960262;28;20416;-79
2022/01/02 11:00:08;;;;;;;14.48;11.25;;;;;;;9.55;78.61;100635.28;4972690;28;20412;-79
2022/01/02 11:02:34;;;;;;;13.93;11.27;;;;;;;9.42;78.80;100632.81;4956378;28;20407;-79
2022/01/02 11:05:06;;;;;;;13.88;11.27;;;;;;;9.25;78.71;100635.34;4973600;28;20396;-79
2022/01/02 11:07:42;;;;;;;11.93;10.60;;;;;;;9.12;79.57;100637.47;4970451;28;20427;-78
2022/01/02 11:10:09;;;;;;;13.25;10.70;;;;;;;9.00;79.88;100626.59;4956319;28;20427;-79
2022/01/02 11:12:37;;;;;;;14.32;11.02;;;;;;;8.90;79.90;100630.91;4973249;28;20463;-79
2022/01/02 11:15:05;;;;;;;15.43;12.20;;;;;;;8.93;79.96;100636.69;4973592;28;20436;-78
2022/01/02 11:17:33;;;;;;;12.60;10.40;;;;;;;8.89;80.59;100638.22;4973411;28;20403;-79
2022/01/02 11:19:58;;;;;;;13.13;10.68;;;;;;;8.85;80.02;100651.38;4972800;28;20440;-79
2022/01/02 11:22:28;;;;;;;14.32;11.30;;;;;;;8.97;79.93;100651.38;4968665;28;20451;-79